createdAt,value
2023-03-26T07:18:29.343Z,94.19
2023-03-26T07:19:24.363Z,93.76
2023-03-26T07:20:19.700Z,93.45
2023-03-26T07:21:15.107Z,93.14
2023-03-26T07:22:10.492Z,92.79
2023-03-26T07:23:05.815Z,92.56
2023-03-26T07:24:00.971Z,92.19
2023-03-26T07:24:56.295Z,91.92
2023-03-26T07:25:51.650Z,91.66
2023-03-26T07:26:47.054Z,91.52
2023-03-26T07:27:42.421Z,91.37
2023-03-26T07:28:37.953Z,91.24
2023-03-26T07:29:33.072Z,91.26
2023-03-26T07:30:28.453Z,91.26
2023-03-26T07:31:23.704Z,91.21
2023-03-26T07:32:19.316Z,91.18
2023-03-26T07:33:14.414Z,91.25
2023-03-26T07:34:09.779Z,91.23
2023-03-26T07:35:05.067Z,91.14
2023-03-26T07:36:00.433Z,91.09
2023-03-26T07:36:55.708Z,91.01
2023-03-26T07:37:51.273Z,90.89
2023-03-26T07:38:46.469Z,90.75
2023-03-26T07:39:41.754Z,90.66
2023-03-26T07:40:37.093Z,90.59
2023-03-26T07:41:32.543Z,90.52
2023-03-26T07:42:27.794Z,90.45
2023-03-26T07:43:23.046Z,90.30
2023-03-26T07:44:18.281Z,90.21
2023-03-26T07:45:13.672Z,90.19
2023-03-26T07:46:09.065Z,90.10
2023-03-26T07:47:04.304Z,90.07
2023-03-26T07:47:59.729Z,90.10
2023-03-26T07:48:55.247Z,90.18
2023-03-26T07:49:50.489Z,90.28
2023-03-26T07:50:45.886Z,90.25
2023-03-26T07:51:41.155Z,90.12
2023-03-26T07:52:36.603Z,90.05
2023-03-26T07:53:31.981Z,90.04
2023-03-26T07:54:27.229Z,90.02
2023-03-26T07:55:22.572Z,89.99
2023-03-26T07:56:18.019Z,89.94
2023-03-26T07:57:13.273Z,89.84
2023-03-26T07:58:08.730Z,89.82
2023-03-26T07:59:04.223Z,89.94
2023-03-26T07:59:59.367Z,90.14
2023-03-26T08:00:54.854Z,90.31
2023-03-26T08:01:50.055Z,90.42
2023-03-26T08:02:45.634Z,90.51
2023-03-26T08:03:40.916Z,90.60
2023-03-26T08:04:36.285Z,90.65
2023-03-26T08:05:31.519Z,90.60
2023-03-26T08:06:26.850Z,90.74
2023-03-26T08:07:22.263Z,90.96
2023-03-26T08:08:17.648Z,91.01
2023-03-26T08:09:13.019Z,91.08
2023-03-26T08:10:08.280Z,91.14
2023-03-26T08:11:03.598Z,91.09
2023-03-26T08:11:58.937Z,91.06
2023-03-26T08:12:54.296Z,91.18
2023-03-26T08:13:49.762Z,91.25
2023-03-26T08:14:44.878Z,91.34
2023-03-26T08:15:40.183Z,91.47
2023-03-26T08:16:35.502Z,91.50
2023-03-26T08:17:31.321Z,91.59
2023-03-26T08:18:26.093Z,91.75
2023-03-26T08:19:21.384Z,91.88
2023-03-26T08:20:16.644Z,91.89
2023-03-26T08:21:11.927Z,92.01
2023-03-26T08:22:07.421Z,92.07
2023-03-26T08:23:02.792Z,92.01
2023-03-26T08:23:57.955Z,92.12
2023-03-26T08:24:53.201Z,92.29
2023-03-26T08:25:48.519Z,92.39
2023-03-26T08:26:43.949Z,92.49
2023-03-26T08:27:39.187Z,92.56
2023-03-26T08:28:34.350Z,92.75
2023-03-26T08:29:29.863Z,92.81
2023-03-26T08:30:25.117Z,92.96
2023-03-26T08:31:20.617Z,93.08
2023-03-26T08:32:15.929Z,93.25
2023-03-26T08:33:11.563Z,93.42
2023-03-26T08:34:06.725Z,93.54
2023-03-26T08:35:02.048Z,93.67
2023-03-26T08:35:57.478Z,93.72
2023-03-26T08:36:52.913Z,93.84
2023-03-26T08:37:48.396Z,93.89
2023-03-26T08:38:45.141Z,93.94
2023-03-26T08:39:39.021Z,93.96
2023-03-26T08:40:34.367Z,94.00
2023-03-26T08:41:29.629Z,94.06
2023-03-26T08:42:25.055Z,94.18
2023-03-26T08:43:20.301Z,94.29
2023-03-26T08:44:15.695Z,94.25
2023-03-26T08:45:10.950Z,94.27
2023-03-26T08:46:06.336Z,94.34
2023-03-26T08:47:01.907Z,94.30
2023-03-26T08:47:57.254Z,94.30
2023-03-26T08:48:52.383Z,94.36
2023-03-26T08:49:47.912Z,94.36
2023-03-26T08:50:43.087Z,94.40
2023-03-26T08:51:38.548Z,94.44
2023-03-26T08:52:33.865Z,94.47
2023-03-26T08:53:29.289Z,94.47
2023-03-26T08:54:24.696Z,94.47
2023-03-26T08:55:20.165Z,94.48
2023-03-26T08:56:15.631Z,94.44
2023-03-26T08:57:11.291Z,94.49
2023-03-26T08:58:06.454Z,94.47
2023-03-26T08:59:01.942Z,94.51
2023-03-26T08:59:57.389Z,94.53
2023-03-26T09:00:52.955Z,94.54
2023-03-26T09:01:48.192Z,94.53
2023-03-26T09:02:43.740Z,94.59
2023-03-26T09:03:38.868Z,94.58
2023-03-26T09:04:34.316Z,94.53
2023-03-26T09:05:29.617Z,94.46
2023-03-26T09:06:25.418Z,94.41
2023-03-26T09:07:20.728Z,94.41
2023-03-26T09:08:15.918Z,94.47
2023-03-26T09:09:18.709Z,94.45
2023-03-26T09:10:07.846Z,94.45
2023-03-26T09:11:02.076Z,94.51
2023-03-26T09:11:57.492Z,94.50
2023-03-26T09:12:53.171Z,94.51
2023-03-26T09:13:48.324Z,94.47
2023-03-26T09:14:43.820Z,94.44
2023-03-26T09:15:39.160Z,94.40
2023-03-26T09:16:34.647Z,94.30
2023-03-26T09:17:29.961Z,94.31
2023-03-26T09:18:25.300Z,94.29
2023-03-26T09:19:20.696Z,94.33
2023-03-26T09:20:16.322Z,94.51
2023-03-26T09:21:11.508Z,94.40
2023-03-26T09:22:07.117Z,94.13
2023-03-26T09:23:02.287Z,94.03
2023-03-26T09:23:57.765Z,93.87
2023-03-26T09:24:53.042Z,93.76
2023-03-26T09:25:48.543Z,93.62
2023-03-26T09:26:43.849Z,93.46
2023-03-26T09:27:39.465Z,93.38
2023-03-26T09:28:34.630Z,93.93
2023-03-26T09:29:32.319Z,94.17
2023-03-26T09:30:25.462Z,94.23
2023-03-26T09:31:20.785Z,93.65
2023-03-26T09:32:16.146Z,93.08
2023-03-26T09:33:11.289Z,92.68
2023-03-26T09:34:06.664Z,92.14
2023-03-26T09:35:02.035Z,91.84
2023-03-26T09:35:57.322Z,91.61
2023-03-26T09:36:52.700Z,91.31
2023-03-26T09:37:57.523Z,91.11
2023-03-26T09:38:44.451Z,91.10
2023-03-26T09:39:38.732Z,91.14
2023-03-26T09:40:34.241Z,91.26
2023-03-26T09:41:29.512Z,91.27
2023-03-26T09:42:25.057Z,91.22
2023-03-26T09:43:20.205Z,91.18
2023-03-26T09:44:15.661Z,90.82
2023-03-26T09:45:10.948Z,90.46
2023-03-26T09:46:06.312Z,90.42
2023-03-26T09:47:01.617Z,90.50
2023-03-26T09:47:56.970Z,90.69
2023-03-26T09:48:52.289Z,90.86
2023-03-26T09:49:47.744Z,90.97
2023-03-26T09:50:43.166Z,91.14
2023-03-26T09:51:38.464Z,91.41
2023-03-26T09:52:33.822Z,91.60
2023-03-26T09:53:29.140Z,91.69
2023-03-26T09:54:24.432Z,91.74
2023-03-26T09:55:19.894Z,91.80
2023-03-26T09:56:15.198Z,91.88
2023-03-26T09:57:10.856Z,91.91
2023-03-26T09:58:06.052Z,91.85
2023-03-26T09:59:01.586Z,91.90
2023-03-26T09:59:56.764Z,91.96
2023-03-26T10:00:52.470Z,92.07
2023-03-26T10:01:47.783Z,92.26
2023-03-26T10:02:46.299Z,92.32
2023-03-26T10:03:38.629Z,92.34
2023-03-26T10:04:34.194Z,92.25
2023-03-26T10:05:29.629Z,92.04
2023-03-26T10:06:25.032Z,91.97
2023-03-26T10:07:20.563Z,92.02
2023-03-26T10:08:15.802Z,92.00
2023-03-26T10:09:11.194Z,92.22
2023-03-26T10:10:06.878Z,91.96
2023-03-26T10:11:02.228Z,91.70
2023-03-26T10:11:57.821Z,91.60
2023-03-26T10:12:57.714Z,91.50
2023-03-26T10:13:49.574Z,91.36
2023-03-26T10:14:43.919Z,91.27
2023-03-26T10:15:39.361Z,91.26
2023-03-26T10:16:34.940Z,91.14
2023-03-26T10:17:30.356Z,91.18
2023-03-26T10:18:27.070Z,91.33
2023-03-26T10:19:21.083Z,91.30
2023-03-26T10:20:16.242Z,91.32
2023-03-26T10:21:11.750Z,91.34
2023-03-26T10:22:07.191Z,91.66
2023-03-26T10:23:02.618Z,92.03
2023-03-26T10:23:58.039Z,91.29
2023-03-26T10:24:53.500Z,90.31
2023-03-26T10:25:48.848Z,89.96
2023-03-26T10:27:10.072Z,89.77
2023-03-26T10:27:41.215Z,88.84
2023-03-26T10:28:35.490Z,87.30
2023-03-26T10:29:30.714Z,87.73
2023-03-26T10:30:26.434Z,87.56
2023-03-26T10:31:21.781Z,87.25
2023-03-26T10:32:17.353Z,87.03
2023-03-26T10:33:12.614Z,85.49
2023-03-26T10:34:08.090Z,84.91
2023-03-26T10:35:03.790Z,84.30
2023-03-26T10:35:59.411Z,85.14
2023-03-26T10:36:54.868Z,85.26
2023-03-26T10:37:50.252Z,83.58
2023-03-26T10:38:45.818Z,82.60
2023-03-26T10:39:43.502Z,82.56
2023-03-26T10:40:36.665Z,82.59
2023-03-26T10:41:32.402Z,82.60
2023-03-26T10:42:27.638Z,83.07
2023-03-26T10:43:22.923Z,84.47
2023-03-26T10:44:18.371Z,84.33
2023-03-26T10:45:13.717Z,83.97
2023-03-26T10:46:09.332Z,84.18
2023-03-26T10:47:04.791Z,82.31
2023-03-26T10:48:00.201Z,82.34
2023-03-26T10:48:55.385Z,81.45
2023-03-26T10:49:50.814Z,82.36
2023-03-26T10:50:46.303Z,82.30
2023-03-26T10:51:41.718Z,82.22
2023-03-26T10:52:37.379Z,82.76
2023-03-26T10:53:32.686Z,83.21
2023-03-26T10:54:28.309Z,83.64
2023-03-26T10:55:25.522Z,84.05
2023-03-26T10:56:19.331Z,84.73
2023-03-26T10:57:14.732Z,84.82
2023-03-26T10:58:10.319Z,85.07
2023-03-26T10:59:05.615Z,84.56
2023-03-26T11:00:00.992Z,84.25
2023-03-26T11:00:56.710Z,84.67
2023-03-26T11:01:51.870Z,85.10
2023-03-26T11:02:47.529Z,86.17
2023-03-26T11:03:42.810Z,86.40
2023-03-26T11:04:38.104Z,85.34
2023-03-26T11:05:33.471Z,85.38
2023-03-26T11:06:28.919Z,84.78
2023-03-26T11:07:24.276Z,84.80
2023-03-26T11:08:19.725Z,84.62
2023-03-26T11:09:15.924Z,84.72
2023-03-26T11:10:10.527Z,84.17
2023-03-26T11:11:05.961Z,83.68
2023-03-26T11:12:01.471Z,83.54
2023-03-26T11:12:57.046Z,84.15
2023-03-26T11:13:52.712Z,84.17
2023-03-26T11:14:47.819Z,83.98
2023-03-26T11:15:43.158Z,84.12
2023-03-26T11:16:38.741Z,84.53
2023-03-26T11:17:40.963Z,84.93
2023-03-26T11:18:30.526Z,85.26
2023-03-26T11:19:24.812Z,85.50
2023-03-26T11:20:20.407Z,84.13
2023-03-26T11:21:19.950Z,82.47
2023-03-26T11:22:11.274Z,82.94
2023-03-26T11:23:06.785Z,84.04
2023-03-26T11:24:05.471Z,84.29
2023-03-26T11:24:57.326Z,84.61
2023-03-26T11:25:52.906Z,85.11
2023-03-26T11:26:48.506Z,85.48
2023-03-26T11:27:43.701Z,85.40
2023-03-26T11:28:39.159Z,85.65
2023-03-26T11:29:34.494Z,85.54
2023-03-26T11:30:29.656Z,85.49
2023-03-26T11:31:25.157Z,85.46
2023-03-26T11:32:20.475Z,85.93
2023-03-26T11:33:16.096Z,86.60
2023-03-26T11:34:11.237Z,87.17
2023-03-26T11:35:06.756Z,87.99
2023-03-26T11:36:02.231Z,88.43
2023-03-26T11:36:57.667Z,88.22
2023-03-26T11:37:53.071Z,88.09
2023-03-26T11:38:48.802Z,87.27
2023-03-26T11:39:44.205Z,86.47
2023-03-26T11:40:39.616Z,86.22
2023-03-26T11:41:35.009Z,85.70
2023-03-26T11:42:30.577Z,85.37
2023-03-26T11:43:26.016Z,85.46
2023-03-26T11:44:21.315Z,85.74
2023-03-26T11:45:16.681Z,86.04
2023-03-26T11:46:12.230Z,86.09
2023-03-26T11:47:07.705Z,86.22
2023-03-26T11:48:03.195Z,86.07
2023-03-26T11:48:58.733Z,85.87
2023-03-26T11:49:53.981Z,85.71
2023-03-26T11:50:49.348Z,85.56
2023-03-26T11:51:44.980Z,85.23
2023-03-26T11:52:40.334Z,85.15
2023-03-26T11:53:35.925Z,85.31
2023-03-26T11:54:31.283Z,86.03
2023-03-26T11:55:26.797Z,85.81
2023-03-26T11:56:22.156Z,85.78
2023-03-26T11:57:17.647Z,85.51
2023-03-26T11:58:12.900Z,85.44
2023-03-26T11:59:08.555Z,85.57
2023-03-26T12:00:03.696Z,85.58
2023-03-26T12:00:59.314Z,85.87
2023-03-26T12:01:54.485Z,86.15
2023-03-26T12:02:49.975Z,86.25
2023-03-26T12:03:45.442Z,86.35
2023-03-26T12:04:40.704Z,86.29
2023-03-26T12:05:35.920Z,86.31
2023-03-26T12:06:31.257Z,86.33
2023-03-26T12:07:26.532Z,86.32
2023-03-26T12:08:22.001Z,86.18
2023-03-26T12:09:17.583Z,86.20
2023-03-26T12:10:17.830Z,86.22
2023-03-26T12:11:09.150Z,86.52
2023-03-26T12:12:03.409Z,86.68
2023-03-26T12:12:58.675Z,85.90
2023-03-26T12:13:54.234Z,85.37
2023-03-26T12:14:49.323Z,84.74
2023-03-26T12:15:44.902Z,84.66
2023-03-26T12:16:40.057Z,84.72
2023-03-26T12:17:35.476Z,84.94
2023-03-26T12:18:30.875Z,85.22
2023-03-26T12:19:26.374Z,85.42
2023-03-26T12:20:21.529Z,85.32
2023-03-26T12:21:17.095Z,85.02
2023-03-26T12:22:12.246Z,85.00
2023-03-26T12:23:07.708Z,85.26
2023-03-26T12:24:03.013Z,85.46
2023-03-26T12:24:58.610Z,85.16
2023-03-26T12:25:53.738Z,85.27
2023-03-26T12:26:49.222Z,85.35
2023-03-26T12:27:44.534Z,85.01
2023-03-26T12:28:41.471Z,85.01
2023-03-26T12:29:35.359Z,84.48
2023-03-26T12:30:30.893Z,83.61
2023-03-26T12:31:26.404Z,83.43
2023-03-26T12:33:17.241Z,82.57
2023-03-26T12:34:13.026Z,82.68
2023-03-26T12:35:08.309Z,82.57
2023-03-26T12:36:03.812Z,82.50
2023-03-26T12:36:59.331Z,82.39
2023-03-26T12:37:54.794Z,81.93
2023-03-26T12:39:42.737Z,80.96
2023-03-26T12:40:06.646Z,80.22
2023-03-26T12:40:42.275Z,79.29
2023-03-26T12:43:51.346Z,78.19
2023-03-26T12:44:50.336Z,77.37
2023-03-26T12:44:53.052Z,76.54
2023-03-26T12:44:53.964Z,76.21
2023-03-26T12:45:19.802Z,76.10
2023-03-26T12:47:56.097Z,76.33
2023-03-26T12:48:00.155Z,76.03
2023-03-26T12:48:06.391Z,77.39
2023-03-26T12:49:01.105Z,77.19
2023-03-26T12:49:56.266Z,75.06
2023-03-26T12:50:51.506Z,74.14
2023-03-26T12:51:46.880Z,75.60
2023-03-26T12:52:42.665Z,77.67
2023-03-26T12:53:38.262Z,77.71
2023-03-26T12:54:33.405Z,78.08
2023-03-26T12:55:29.036Z,77.90
2023-03-26T12:56:24.408Z,78.12
2023-03-26T12:57:19.845Z,78.51
2023-03-26T12:58:15.360Z,77.34
2023-03-26T12:59:10.855Z,78.36
2023-03-26T13:00:05.976Z,77.75
2023-03-26T13:01:01.388Z,77.12
2023-03-26T13:01:56.990Z,77.30
2023-03-26T13:02:52.391Z,78.26
2023-03-26T13:03:47.735Z,78.19
2023-03-26T13:04:51.906Z,77.70
2023-03-26T13:05:39.583Z,77.72
2023-03-26T13:06:59.208Z,76.92
2023-03-26T13:07:30.415Z,75.72
2023-03-26T13:08:24.906Z,74.14
2023-03-26T13:09:20.243Z,73.87
2023-03-26T13:10:15.703Z,74.26
2023-03-26T13:11:11.086Z,74.25
2023-03-26T13:12:06.600Z,73.78
2023-03-26T13:13:02.092Z,73.37
2023-03-26T13:13:57.641Z,71.71
2023-03-26T13:14:52.985Z,72.29
2023-03-26T13:15:49.108Z,72.91
2023-03-26T13:16:44.043Z,73.13
2023-03-26T13:17:39.587Z,73.53
2023-03-26T13:18:34.910Z,74.00
2023-03-26T13:19:30.168Z,73.52
2023-03-26T13:20:25.553Z,73.11
2023-03-26T13:21:21.012Z,73.93
2023-03-26T13:22:16.413Z,73.39
2023-03-26T13:23:12.063Z,73.42
2023-03-26T13:24:07.607Z,73.28
2023-03-26T13:25:02.882Z,72.64
2023-03-26T13:25:58.241Z,73.35
2023-03-26T13:26:53.719Z,73.65
2023-03-26T13:27:49.055Z,72.63
2023-03-26T13:28:44.738Z,72.72
2023-03-26T13:29:39.965Z,73.02
2023-03-26T13:30:35.550Z,72.74
2023-03-26T13:31:31.111Z,72.42
2023-03-26T13:32:26.632Z,71.55
2023-03-26T13:33:22.217Z,70.56
2023-03-26T13:34:17.636Z,70.65
2023-03-26T13:35:13.068Z,70.54
2023-03-26T13:36:22.610Z,71.06
2023-03-26T13:37:04.874Z,72.25
2023-03-26T13:37:59.334Z,72.19
2023-03-26T13:38:59.139Z,71.88
2023-03-26T13:39:51.379Z,71.70
2023-03-26T13:40:45.946Z,71.92
2023-03-26T13:41:41.376Z,71.17
2023-03-26T13:42:37.025Z,71.58
2023-03-26T13:43:32.436Z,70.69
2023-03-26T13:44:28.006Z,70.82
2023-03-26T13:45:23.347Z,71.73
2023-03-26T13:46:18.733Z,72.42
2023-03-26T13:47:14.531Z,72.72
2023-03-26T13:48:09.788Z,74.33
2023-03-26T13:49:05.300Z,74.82
2023-03-26T13:50:00.961Z,74.71
2023-03-26T13:50:56.273Z,75.24
2023-03-26T13:51:51.543Z,75.22
2023-03-26T13:52:46.943Z,76.68
2023-03-26T13:53:42.419Z,75.58
2023-03-26T13:54:37.898Z,75.81
2023-03-26T13:55:33.260Z,76.96
2023-03-26T13:56:28.529Z,77.43
2023-03-26T13:57:24.045Z,77.07
2023-03-26T13:58:19.330Z,77.70
2023-03-26T13:59:14.661Z,76.01
2023-03-26T14:00:10.641Z,75.45
2023-03-26T14:01:05.615Z,76.74
2023-03-26T14:02:01.178Z,77.98
2023-03-26T14:02:56.889Z,77.79
2023-03-26T14:03:52.176Z,77.46
2023-03-26T14:04:47.510Z,77.82
2023-03-26T14:05:43.133Z,78.22
2023-03-26T14:06:38.346Z,76.39
2023-03-26T14:07:33.685Z,76.72
2023-03-26T14:08:32.655Z,76.88
2023-03-26T14:09:25.916Z,77.22
2023-03-26T14:10:21.535Z,77.60
2023-03-26T14:11:16.818Z,77.83
2023-03-26T14:12:21.168Z,77.84
2023-03-26T14:13:08.340Z,78.39
2023-03-26T14:14:02.356Z,78.43
2023-03-26T14:14:57.633Z,77.94
2023-03-26T14:15:52.449Z,77.59
2023-03-26T14:16:47.617Z,77.11
2023-03-26T14:17:42.687Z,77.51
2023-03-26T14:18:37.682Z,77.96
2023-03-26T14:19:32.753Z,78.02
2023-03-26T14:20:28.077Z,77.93
2023-03-26T14:21:22.910Z,77.45
2023-03-26T14:22:18.176Z,76.93
2023-03-26T14:23:13.403Z,77.14
2023-03-26T14:24:08.978Z,76.53
2023-03-26T14:25:04.619Z,76.83
2023-03-26T14:25:59.946Z,75.98
2023-03-26T14:26:55.347Z,75.62
2023-03-26T14:27:50.745Z,74.63
2023-03-26T14:28:46.171Z,73.82
2023-03-26T14:29:56.674Z,73.95
2023-03-26T14:30:38.373Z,72.45
2023-03-26T14:31:32.896Z,72.35
2023-03-26T14:32:28.321Z,72.30
2023-03-26T14:33:27.345Z,71.55
2023-03-26T14:34:19.224Z,71.37
2023-03-26T14:35:14.624Z,71.03
2023-03-26T14:36:09.601Z,70.96
2023-03-26T14:37:04.700Z,71.16
2023-03-26T14:37:59.711Z,71.91
2023-03-26T14:38:54.756Z,72.17
2023-03-26T14:39:49.752Z,72.25
2023-03-26T14:40:44.986Z,71.32
2023-03-26T14:41:39.861Z,71.37
2023-03-26T14:42:34.947Z,71.06
2023-03-26T14:43:31.844Z,70.61
2023-03-26T14:44:26.960Z,69.52
2023-03-26T14:45:22.128Z,69.41
2023-03-26T14:46:17.155Z,68.71
2023-03-26T14:47:14.834Z,68.20
2023-03-26T14:48:09.687Z,66.80
2023-03-26T14:49:02.261Z,66.97
2023-03-26T14:49:57.409Z,67.86
2023-03-26T14:50:52.815Z,68.02
2023-03-26T14:51:47.939Z,68.47
2023-03-26T14:52:44.514Z,65.47
2023-03-26T14:53:40.179Z,63.51
2023-03-26T14:54:35.940Z,63.75
2023-03-26T14:55:31.595Z,62.70
2023-03-26T14:56:26.839Z,61.96
2023-03-26T14:57:22.954Z,61.74
2023-03-26T14:58:18.241Z,60.90
2023-03-26T14:59:14.106Z,59.87
2023-03-26T15:00:09.698Z,60.44
2023-03-26T15:01:04.935Z,60.03
2023-03-26T15:02:00.572Z,59.78
2023-03-26T15:02:56.147Z,60.51
2023-03-26T15:03:51.488Z,61.63
2023-03-26T15:04:47.924Z,61.12
2023-03-26T15:05:43.346Z,59.30
2023-03-26T15:06:39.334Z,59.78
2023-03-26T15:07:34.883Z,59.19
2023-03-26T15:08:33.899Z,57.90
2023-03-26T15:09:26.302Z,58.35
2023-03-26T15:10:22.049Z,58.64
2023-03-26T15:11:17.745Z,58.89
2023-03-26T15:12:13.673Z,59.73
2023-03-26T15:13:08.586Z,60.40
2023-03-26T15:14:04.449Z,61.70
2023-03-26T15:14:59.906Z,61.58
2023-03-26T15:15:55.366Z,60.65
2023-03-26T15:16:51.705Z,61.05
2023-03-26T15:17:47.102Z,59.81
2023-03-26T15:18:42.924Z,60.26
2023-03-26T15:19:38.397Z,58.89
2023-03-26T15:20:34.102Z,58.81
2023-03-26T15:21:29.635Z,59.36
2023-03-26T15:22:26.103Z,59.27
2023-03-26T15:23:20.829Z,59.30
2023-03-26T15:24:16.131Z,59.08
2023-03-26T15:25:11.880Z,59.13
2023-03-26T15:26:07.612Z,58.82
2023-03-26T15:27:03.271Z,59.90
2023-03-26T15:27:58.641Z,58.09
2023-03-26T15:28:55.161Z,58.23
2023-03-26T15:29:50.708Z,57.96
2023-03-26T15:30:46.514Z,58.07
2023-03-26T15:31:41.774Z,57.44
2023-03-26T15:32:37.357Z,58.00
2023-03-26T15:33:33.048Z,58.09
2023-03-26T15:34:28.731Z,58.51
2023-03-26T15:35:24.719Z,58.51
2023-03-26T15:36:19.984Z,57.34
2023-03-26T15:37:15.478Z,57.69
2023-03-26T15:38:11.255Z,56.55
2023-03-26T15:39:06.630Z,56.70
2023-03-26T15:40:02.324Z,58.07
2023-03-26T15:41:01.101Z,57.55
2023-03-26T15:41:56.494Z,57.38
2023-03-26T15:42:51.784Z,57.08
2023-03-26T15:43:54.993Z,57.25
2023-03-26T15:44:54.188Z,57.70
2023-03-26T15:45:38.632Z,58.49
2023-03-26T15:46:33.499Z,58.67
2023-03-26T15:47:28.648Z,57.19
2023-03-26T15:48:28.083Z,57.97
2023-03-26T15:49:23.656Z,57.67
2023-03-26T15:50:19.274Z,58.28
2023-03-26T15:51:15.175Z,58.65
2023-03-26T15:52:10.559Z,58.37
2023-03-26T15:53:06.003Z,58.99
2023-03-26T15:54:02.267Z,59.06
2023-03-26T15:54:58.056Z,59.19
2023-03-26T15:55:53.733Z,59.06
2023-03-26T15:56:49.320Z,59.02
2023-03-26T15:57:44.481Z,59.51
2023-03-26T15:58:39.965Z,60.96
2023-03-26T15:59:36.114Z,60.19
2023-03-26T16:00:31.567Z,60.81
2023-03-26T16:01:26.967Z,60.95
2023-03-26T16:02:22.426Z,60.98
2023-03-26T16:03:17.399Z,60.93
2023-03-26T16:04:12.685Z,59.97
2023-03-26T16:05:07.609Z,60.08
2023-03-26T16:06:02.868Z,59.30
2023-03-26T16:06:57.901Z,59.08
2023-03-26T16:07:56.572Z,59.42
2023-03-26T16:08:51.775Z,59.98
2023-03-26T16:09:46.817Z,59.62
2023-03-26T16:10:41.882Z,60.34
2023-03-26T16:11:36.916Z,60.31
2023-03-26T16:12:32.000Z,60.36
2023-03-26T16:13:27.013Z,60.01
2023-03-26T16:14:23.763Z,60.41
2023-03-26T16:15:18.018Z,60.91
2023-03-26T16:16:13.522Z,60.67
2023-03-26T16:17:08.994Z,60.64
2023-03-26T16:18:04.736Z,61.16
2023-03-26T16:19:00.094Z,61.23
2023-03-26T16:19:55.934Z,60.94
2023-03-26T16:20:51.363Z,61.30
2023-03-26T16:21:46.746Z,61.46
2023-03-26T16:22:43.789Z,61.36
2023-03-26T16:23:47.738Z,61.13
2023-03-26T16:24:34.279Z,61.19
2023-03-26T16:25:29.365Z,61.57
2023-03-26T16:26:24.470Z,61.40
2023-03-26T16:27:19.827Z,61.55
2023-03-26T16:28:15.318Z,62.35
2023-03-26T16:29:12.140Z,63.09
2023-03-26T16:30:07.355Z,63.40
2023-03-26T16:31:03.175Z,66.44
2023-03-26T16:31:59.678Z,69.86
2023-03-26T16:32:53.900Z,71.74
2023-03-26T16:33:50.459Z,73.24
2023-03-26T16:34:45.789Z,74.56
2023-03-26T16:35:41.788Z,75.41
2023-03-26T16:36:36.914Z,76.04
2023-03-26T16:37:32.493Z,77.03
2023-03-26T16:38:28.142Z,77.91
2023-03-26T16:39:23.645Z,78.36
2023-03-26T16:40:18.869Z,78.80
2023-03-26T16:41:15.293Z,79.43
2023-03-26T16:42:10.603Z,79.44
2023-03-26T16:43:06.342Z,79.97
2023-03-26T16:44:01.622Z,80.32
2023-03-26T16:44:56.917Z,80.66
2023-03-26T16:45:52.712Z,80.95
2023-03-26T16:46:48.182Z,80.87
2023-03-26T16:47:43.902Z,81.07
2023-03-26T16:48:39.274Z,81.26
2023-03-26T16:49:34.722Z,81.49
2023-03-26T16:50:30.264Z,81.90
2023-03-26T16:51:25.541Z,82.27
2023-03-26T16:52:20.962Z,82.54
2023-03-26T16:53:17.032Z,82.96
2023-03-26T16:54:12.455Z,82.89
2023-03-26T16:55:08.365Z,82.54
2023-03-26T16:56:03.660Z,82.00
2023-03-26T16:56:59.076Z,81.87
2023-03-26T16:57:54.910Z,81.77
2023-03-26T16:58:50.315Z,81.57
2023-03-26T16:59:46.328Z,81.64
2023-03-26T17:00:42.344Z,81.96
2023-03-26T17:01:37.394Z,82.42
2023-03-26T17:02:32.935Z,82.60
2023-03-26T17:03:28.611Z,82.25
2023-03-26T17:04:23.935Z,81.85
2023-03-26T17:05:19.428Z,82.07
2023-03-26T17:06:15.067Z,81.73
2023-03-26T17:07:10.564Z,81.63
2023-03-26T17:08:05.880Z,82.09
2023-03-26T17:09:02.084Z,82.53
2023-03-26T17:09:57.512Z,82.28
2023-03-26T17:10:53.402Z,81.99
2023-03-26T17:11:48.583Z,82.19
2023-03-26T17:12:43.830Z,82.20
2023-03-26T17:13:39.156Z,81.97
2023-03-26T17:14:34.418Z,81.99
2023-03-26T17:15:31.191Z,81.91
2023-03-26T17:16:26.342Z,81.53
2023-03-26T17:17:22.199Z,81.55
2023-03-26T17:18:17.472Z,81.74
2023-03-26T17:19:12.602Z,81.43
2023-03-26T17:20:08.331Z,81.72
2023-03-26T17:21:04.023Z,82.02
2023-03-26T17:21:59.624Z,81.68
2023-03-26T17:22:54.961Z,81.73
2023-03-26T17:23:50.291Z,82.00
2023-03-26T17:24:46.216Z,81.53
2023-03-26T17:25:41.595Z,80.57
2023-03-26T17:26:36.765Z,81.05
2023-03-26T17:27:33.171Z,80.92
2023-03-26T17:28:28.486Z,81.03
2023-03-26T17:29:24.240Z,80.91
2023-03-26T17:30:19.603Z,82.93
2023-03-26T17:31:15.110Z,85.92
2023-03-26T17:32:10.194Z,87.31
2023-03-26T17:33:05.491Z,90.24
2023-03-26T17:34:00.912Z,89.08
2023-03-26T17:34:58.296Z,85.09
2023-03-26T17:35:53.716Z,80.59
2023-03-26T17:36:48.698Z,78.40
2023-03-26T17:37:44.042Z,77.74
2023-03-26T17:38:39.108Z,77.66
2023-03-26T17:39:34.117Z,78.06
2023-03-26T17:40:29.159Z,78.53
2023-03-26T17:41:24.335Z,77.72
2023-03-26T17:42:19.398Z,77.75
2023-03-26T17:43:14.427Z,77.90
2023-03-26T17:44:09.428Z,79.03
2023-03-26T17:45:04.478Z,79.06
2023-03-26T17:46:02.686Z,79.09
2023-03-26T17:46:54.604Z,79.14
2023-03-26T17:47:49.714Z,79.18
2023-03-26T17:48:44.801Z,78.75
2023-03-26T17:49:39.804Z,78.81
2023-03-26T17:50:34.858Z,79.10
2023-03-26T17:51:30.007Z,79.43
2023-03-26T17:52:24.872Z,79.91
2023-03-26T17:53:19.942Z,79.53
2023-03-26T17:54:15.020Z,79.31
2023-03-26T17:55:10.077Z,79.28
2023-03-26T17:56:05.182Z,79.25
2023-03-26T17:57:00.206Z,79.47
2023-03-26T17:57:55.243Z,79.36
2023-03-26T17:58:50.228Z,79.39
2023-03-26T17:59:45.361Z,79.72
2023-03-26T18:00:40.429Z,79.97
2023-03-26T18:01:35.671Z,79.78
2023-03-26T18:02:30.620Z,79.75
2023-03-26T18:03:25.631Z,79.67
2023-03-26T18:04:20.757Z,79.62
2023-03-26T18:05:15.848Z,79.87
2023-03-26T18:06:10.960Z,79.95
2023-03-26T18:07:05.994Z,79.83
2023-03-26T18:08:01.070Z,79.71
2023-03-26T18:08:56.162Z,79.43
2023-03-26T18:09:51.203Z,79.43
2023-03-26T18:10:46.850Z,79.47
2023-03-26T18:11:42.311Z,79.62
2023-03-26T18:12:38.065Z,79.50
2023-03-26T18:13:33.206Z,79.50
2023-03-26T18:14:28.467Z,79.63
2023-03-26T18:15:24.191Z,79.49
2023-03-26T18:16:19.465Z,79.19
2023-03-26T18:17:14.749Z,79.21
2023-03-26T18:18:10.933Z,79.33
2023-03-26T18:19:06.105Z,79.21
2023-03-26T18:20:01.905Z,79.30
2023-03-26T18:20:57.224Z,79.63
2023-03-26T18:21:52.575Z,79.65
2023-03-26T18:22:48.185Z,79.60
2023-03-26T18:23:43.381Z,79.66
2023-03-26T18:24:39.350Z,79.51
2023-03-26T18:25:34.414Z,79.69
2023-03-26T18:26:29.719Z,79.66
2023-03-26T18:27:25.812Z,79.65
2023-03-26T18:28:20.853Z,79.53
2023-03-26T18:29:16.158Z,79.64
2023-03-26T18:30:12.196Z,79.72
2023-03-26T18:31:07.400Z,79.93
2023-03-26T18:32:03.254Z,80.53
2023-03-26T18:33:00.125Z,80.55
2023-03-26T18:33:53.707Z,79.73
2023-03-26T18:34:48.788Z,79.66
2023-03-26T18:35:44.022Z,79.80
2023-03-26T18:36:42.063Z,80.02
2023-03-26T18:37:37.379Z,80.23
2023-03-26T18:38:37.575Z,80.31
2023-03-26T18:39:29.271Z,80.05
2023-03-26T18:40:23.600Z,79.85
2023-03-26T18:41:18.582Z,79.57
2023-03-26T18:42:23.197Z,79.63
2023-03-26T18:43:11.256Z,79.72
2023-03-26T18:44:06.045Z,79.62
2023-03-26T18:45:02.763Z,80.13
2023-03-26T18:45:56.474Z,80.17
2023-03-26T18:46:51.472Z,80.10
2023-03-26T18:47:46.609Z,80.16
2023-03-26T18:48:46.096Z,80.14
2023-03-26T18:49:41.258Z,80.00
2023-03-26T18:50:36.572Z,79.94
2023-03-26T18:51:33.052Z,80.01
2023-03-26T18:52:27.612Z,79.88
2023-03-26T18:53:22.802Z,79.67
2023-03-26T18:54:18.948Z,79.79
2023-03-26T18:55:14.182Z,79.65
2023-03-26T18:56:09.891Z,79.70
2023-03-26T18:57:05.146Z,79.79
2023-03-26T18:58:01.746Z,79.77
2023-03-26T18:58:55.976Z,79.77
2023-03-26T18:59:51.852Z,79.70
2023-03-26T19:00:47.230Z,79.52
2023-03-26T19:01:42.327Z,79.61
2023-03-26T19:02:38.430Z,79.74
2023-03-26T19:03:33.268Z,79.91
2023-03-26T19:04:28.434Z,80.30
2023-03-26T19:05:23.488Z,79.99
2023-03-26T19:06:19.637Z,79.74
2023-03-26T19:07:14.685Z,79.55
2023-03-26T19:08:10.004Z,79.44
2023-03-26T19:10:01.204Z,79.47
2023-03-26T19:10:57.103Z,79.50
2023-03-26T19:11:52.063Z,79.35
2023-03-26T19:12:47.147Z,79.27
2023-03-26T19:13:43.220Z,79.39